createdAt,value
2022-11-19T05:07:22.996Z,16.80
2022-11-19T05:09:50.255Z,17.80
2022-11-19T05:12:17.231Z,19.47
2022-11-19T05:14:46.804Z,20.63
2022-11-19T05:17:13.834Z,20.07
2022-11-19T05:19:41.291Z,21.03
2022-11-19T05:22:11.404Z,20.63
2022-11-19T05:24:38.460Z,21.73
2022-11-19T05:27:05.609Z,20.30
2022-11-19T05:29:33.012Z,20.73
2022-11-19T05:32:02.125Z,18.93
2022-11-19T05:34:29.036Z,21.50
2022-11-19T05:36:57.560Z,25.92
2022-11-19T05:39:25.003Z,25.83
2022-11-19T05:41:52.720Z,26.48
2022-11-19T05:44:19.933Z,25.15
2022-11-19T05:46:46.883Z,24.63
2022-11-19T05:49:13.965Z,24.35
2022-11-19T05:51:41.023Z,24.98
2022-11-19T05:54:11.413Z,24.55
2022-11-19T05:56:38.595Z,23.90
2022-11-19T05:59:08.881Z,23.25
2022-11-19T06:01:40.559Z,23.15
2022-11-19T06:04:11.404Z,20.53
2022-11-19T06:06:46.407Z,18.03
2022-11-19T06:09:21.950Z,17.27
2022-11-19T06:11:50.629Z,18.13
2022-11-19T06:14:30.091Z,17.83
2022-11-19T06:17:03.582Z,17.73
2022-11-19T06:19:33.652Z,15.13
2022-11-19T06:22:08.950Z,18.67
2022-11-19T06:24:41.334Z,15.20
2022-11-19T06:27:10.912Z,15.93
2022-11-19T06:29:37.996Z,17.97
2022-11-19T06:32:05.212Z,17.60
2022-11-19T06:34:36.868Z,17.30
2022-11-19T06:37:07.129Z,19.60
2022-11-19T06:39:40.704Z,17.10
2022-11-19T06:42:45.224Z,17.60
2022-11-19T06:45:20.042Z,17.67
2022-11-19T06:47:54.807Z,17.00
2022-11-19T06:50:21.932Z,17.80
2022-11-19T07:38:36.677Z,19.77
2022-11-19T07:41:24.919Z,19.55
2022-11-19T07:43:54.289Z,20.20
2022-11-19T07:46:21.823Z,19.30
2022-11-19T07:48:56.344Z,18.42
2022-11-19T07:51:30.240Z,19.55
2022-11-19T07:54:04.162Z,18.55
2022-11-19T07:56:31.455Z,18.38
2022-11-19T07:59:00.690Z,17.33
2022-11-19T08:01:27.740Z,18.33
2022-11-19T08:03:56.752Z,18.98
2022-11-19T08:06:26.505Z,18.00
2022-11-19T08:08:56.109Z,17.63
2022-11-19T08:11:24.463Z,18.17
2022-11-19T08:13:52.156Z,17.30
2022-11-19T08:16:49.533Z,14.13
2022-11-19T08:21:59.430Z,13.27
2022-11-19T08:24:26.307Z,15.07
2022-11-19T08:26:53.210Z,12.87
2022-11-19T08:29:23.880Z,13.37
2022-11-19T08:31:52.202Z,12.00
2022-11-19T08:34:19.490Z,14.53
2022-11-19T08:36:46.829Z,13.43
2022-11-19T08:55:23.435Z,12.03
2022-11-19T08:57:51.745Z,12.73
2022-11-19T09:00:21.026Z,12.17
2022-11-19T09:02:50.501Z,12.50
2022-11-19T09:05:23.403Z,12.90
2022-11-19T09:07:52.881Z,13.77
2022-11-19T09:10:23.666Z,11.43
2022-11-19T09:12:56.030Z,11.53
2022-11-19T09:15:23.315Z,12.63
2022-11-19T09:17:50.959Z,10.27
2022-11-19T09:20:21.835Z,12.50
2022-11-19T09:22:49.932Z,12.43
2022-11-19T09:25:18.310Z,13.50
2022-11-19T09:27:47.046Z,11.37
2022-11-19T09:30:18.204Z,12.93
2022-11-19T09:32:45.782Z,10.03
2022-11-19T09:35:18.930Z,11.13
2022-11-19T09:37:46.464Z,10.67
2022-11-19T09:40:20.977Z,10.17
2022-11-19T09:43:16.966Z,10.93
2022-11-19T09:46:17.513Z,11.37
2022-11-19T09:48:46.432Z,11.67
2022-11-19T09:51:17.197Z,11.10
2022-11-19T09:54:00.360Z,9.93
2022-11-19T09:59:05.183Z,12.80
2022-11-19T10:01:35.540Z,13.18
2022-11-19T10:04:05.063Z,12.40
2022-11-19T10:07:08.915Z,12.60
2022-11-19T10:09:52.516Z,11.03
2022-11-19T10:12:31.504Z,10.40
2022-11-19T10:15:10.937Z,10.57
2022-11-19T10:18:16.258Z,9.90
2022-11-19T10:20:52.499Z,11.07
2022-11-19T10:23:45.471Z,10.13
2022-11-19T10:26:16.510Z,10.50
2022-11-19T10:28:55.765Z,9.87
2022-11-19T10:31:46.251Z,9.53
2022-11-19T10:34:30.590Z,9.90
2022-11-19T10:37:12.211Z,9.87
2022-11-19T10:39:45.153Z,10.40
2022-11-19T10:42:34.508Z,10.07
2022-11-19T10:45:31.261Z,9.90
2022-11-19T10:48:09.368Z,9.10
2022-11-19T10:50:37.536Z,9.60
2022-11-19T10:53:26.625Z,9.83
2022-11-19T10:56:01.883Z,8.17
2022-11-19T10:58:43.675Z,8.93
2022-11-19T11:01:33.300Z,8.83
2022-11-19T11:04:21.058Z,8.30
2022-11-19T11:06:59.892Z,7.93
2022-11-19T11:09:40.375Z,8.70
2022-11-19T11:12:44.923Z,8.40
2022-11-19T11:15:29.360Z,7.53
2022-11-19T11:18:15.991Z,8.73
2022-11-19T11:20:51.229Z,7.23
2022-11-19T11:23:22.962Z,7.87
2022-11-19T11:26:12.710Z,8.43
2022-11-19T11:29:00.904Z,9.40
2022-11-19T11:31:37.533Z,9.15
2022-11-19T11:34:10.618Z,9.15
2022-11-19T11:36:40.979Z,9.05
2022-11-19T11:39:23.213Z,8.52
2022-11-19T11:42:05.480Z,8.75
2022-11-19T11:44:37.477Z,8.57
2022-11-19T11:47:21.235Z,8.10
2022-11-19T11:49:57.720Z,8.65
2022-11-19T11:52:40.657Z,8.05
2022-11-19T11:55:17.110Z,8.73
2022-11-19T11:57:55.594Z,8.35
2022-11-19T12:00:44.425Z,8.50
2022-11-19T12:03:19.253Z,8.43
2022-11-19T12:06:08.866Z,7.88
2022-11-19T12:09:04.270Z,8.15
2022-11-19T12:11:54.437Z,8.45
2022-11-19T12:14:31.466Z,7.38
2022-11-19T12:17:33.249Z,7.93
2022-11-19T12:20:37.674Z,8.00
2022-11-19T12:23:23.066Z,7.80
2022-11-19T12:26:00.951Z,7.57
2022-11-19T12:28:30.940Z,7.90
2022-11-19T12:31:12.603Z,7.77
2022-11-19T12:34:01.186Z,7.37
2022-11-19T12:36:59.862Z,7.65
2022-11-19T12:39:36.205Z,7.32
2022-11-19T12:42:12.501Z,7.13
2022-11-19T12:44:54.909Z,7.28
2022-11-19T12:47:53.369Z,7.10
2022-11-19T12:50:59.143Z,6.90
2022-11-19T12:53:29.768Z,6.90
2022-11-19T12:56:22.171Z,7.10
2022-11-19T12:59:14.434Z,7.55
2022-11-19T13:01:49.109Z,6.50
2022-11-19T13:04:34.956Z,6.77
2022-11-19T14:09:43.386Z,6.33
2022-11-19T14:12:33.303Z,6.03
2022-11-19T14:15:44.770Z,6.70
2022-11-19T14:18:40.753Z,6.60
2022-11-19T14:21:49.955Z,6.87
2022-11-19T14:24:44.869Z,7.17
2022-11-19T14:27:26.671Z,6.43
2022-11-19T14:30:00.587Z,6.20
2022-11-19T14:32:47.216Z,7.53
2022-11-19T14:35:32.108Z,6.47
2022-11-19T14:38:39.371Z,6.53
2022-11-19T14:41:22.084Z,6.10
2022-11-19T14:44:14.937Z,6.47
2022-11-19T14:46:45.762Z,6.13
2022-11-19T14:49:32.913Z,5.83
2022-11-19T14:52:05.226Z,6.47
2022-11-19T14:54:38.225Z,5.93
2022-11-19T14:57:17.627Z,6.10
2022-11-19T15:00:01.344Z,6.17
2022-11-19T15:02:46.659Z,6.10
2022-11-19T15:05:23.308Z,6.43
2022-11-19T15:08:13.675Z,6.57
2022-11-19T15:13:44.033Z,5.80
2022-11-19T15:16:19.928Z,5.70
2022-11-19T15:18:51.602Z,6.60
2022-11-19T15:21:40.055Z,6.53
2022-11-19T15:24:19.429Z,6.13
2022-11-19T15:27:08.707Z,5.80
2022-11-19T15:30:16.979Z,6.80
2022-11-19T15:33:12.575Z,8.67
2022-11-19T15:35:57.591Z,10.80
2022-11-19T15:38:42.475Z,19.43
2022-11-19T15:41:16.089Z,17.97
2022-11-19T15:43:54.602Z,14.13
2022-11-19T15:46:33.454Z,14.77
2022-11-19T15:49:23.730Z,20.10
2022-11-19T15:51:57.896Z,8.67
2022-11-19T15:54:32.263Z,8.17
2022-11-19T15:57:15.827Z,10.33
2022-11-19T15:59:46.681Z,8.27
2022-11-19T16:02:44.833Z,9.80
2022-11-19T16:05:30.549Z,11.10
2022-11-19T16:08:06.000Z,13.57
2022-11-19T16:10:42.979Z,15.20
2022-11-19T16:13:57.251Z,16.77
2022-11-19T16:16:50.018Z,18.87
2022-11-19T16:19:18.615Z,14.90
2022-11-19T16:21:58.194Z,12.63
2022-11-19T16:24:48.885Z,15.80
2022-11-19T16:27:28.124Z,17.87
2022-11-19T16:29:58.667Z,18.67
2022-11-19T16:32:31.015Z,15.23
2022-11-19T16:35:25.366Z,14.73
2022-11-19T16:37:54.455Z,17.00
2022-11-19T16:40:23.253Z,17.07
2022-11-19T16:42:57.666Z,11.87
2022-11-19T16:45:30.344Z,11.47
2022-11-19T16:47:59.848Z,10.80
2022-11-19T16:50:33.799Z,10.73
2022-11-19T16:53:01.813Z,10.37
2022-11-19T16:55:34.030Z,11.07
